| Date | Time | Temp. (oF) | Dew Point (oF) | Rel. Hum. (%) | Press. (in.) | Wind Dir. | Wind Speed (mph) | Hourly Rainfall (in.) |
|
|---|---|---|---|---|---|---|---|---|---|
| 1 | 02/10 | 00:00 | 24 | 23 | 98 | 30.20 | SSW | 0 | 0.00 |
| 2 | 02/09 | 23:00 | 25 | 23 | 94 | 30.19 | NE | 1 | 0.00 |
| 3 | 02/09 | 22:00 | 27 | 23 | 88 | 30.20 | WSW | 0 | 0.00 |
| 4 | 02/09 | 21:00 | 29 | 24 | 83 | 30.20 | WSW | 0 | 0.00 |
| 5 | 02/09 | 20:00 | 30 | 22 | 74 | 30.18 | SW | 0 | 0.00 |
| 6 | 02/09 | 19:00 | 34 | 22 | 63 | 30.19 | SSW | 2 | 0.00 |
| 7 | 02/09 | 18:00 | 36 | 21 | 56 | 30.18 | SW | 5 | 0.00 |
| 8 | 02/09 | 17:00 | 40 | 21 | 48 | 30.15 | SW | 3 | 0.00 |
| 9 | 02/09 | 16:00 | 41 | 22 | 47 | 30.13 | WNW | 4 | 0.00 |
| 10 | 02/09 | 15:00 | 40 | 23 | 52 | 30.15 | WNW | 7 | 0.00 |
| 11 | 02/09 | 14:00 | 39 | 25 | 59 | 30.17 | WNW | 10 | 0.00 |
| 12 | 02/09 | 13:00 | 36 | 27 | 70 | 30.20 | SW | 10 | 0.00 |
| 13 | 02/09 | 12:00 | 34 | 26 | 73 | 30.23 | WSW | 3 | 0.00 |
| 14 | 02/09 | 11:00 | 32 | 26 | 79 | 30.25 | NW | 8 | 0.00 |
| 15 | 02/09 | 10:00 | 29 | 24 | 82 | 30.25 | N | 7 | 0.00 |
| 16 | 02/09 | 09:00 | 28 | 22 | 81 | 30.25 | NW | 7 | 0.00 |
| 17 | 02/09 | 08:00 | 25 | 21 | 86 | 30.24 | N | 4 | 0.00 |
| 18 | 02/09 | 07:00 | 25 | 21 | 88 | 30.21 | W | 6 | 0.00 |
| 19 | 02/09 | 06:00 | 26 | 22 | 87 | 30.19 | W | 5 | 0.00 |
| 20 | 02/09 | 05:00 | 27 | 26 | 98 | 30.17 | W | 7 | 0.00 |
| 21 | 02/09 | 04:00 | 29 | 28 | 100 | 30.15 | WSW | 2 | 0.00 |
| 22 | 02/09 | 03:00 | 29 | 28 | 100 | 30.15 | N | 4 | 0.00 |
| 23 | 02/09 | 02:00 | 29 | 28 | 100 | 30.15 | WSW | 3 | 0.00 |
| 24 | 02/09 | 01:00 | 30 | 30 | 100 | 30.15 | W | 2 | 0.00 |